sensor_id;sensor_type;location;lat;lon;timestamp;pressure;altitude;pressure_sealevel;temperature;humidity
54453;BME280;40363;52.270;10.546;2023-03-23T00:01:09;75498.72;;;-147.06;60.59
54453;BME280;40363;52.270;10.546;2023-03-23T00:03:38;75506.94;;;-147.06;61.08
54453;BME280;40363;52.270;10.546;2023-03-23T00:06:06;75504.88;;;-147.06;60.87
54453;BME280;40363;52.270;10.546;2023-03-23T00:08:34;75498.72;;;-147.06;60.63
54453;BME280;40363;52.270;10.546;2023-03-23T00:11:11;75490.50;;;-147.06;60.83
54453;BME280;40363;52.270;10.546;2023-03-23T00:13:41;75504.88;;;-147.06;60.95
54453;BME280;40363;52.270;10.546;2023-03-23T00:16:08;75502.84;;;-147.06;60.72
54453;BME280;40363;52.270;10.546;2023-03-23T00:18:43;75492.56;;;-147.06;61.27
54453;BME280;40363;52.270;10.546;2023-03-23T00:21:10;75496.66;;;-147.06;61.27
54453;BME280;40363;52.270;10.546;2023-03-23T00:23:36;75504.88;;;-147.06;60.96
54453;BME280;40363;52.270;10.546;2023-03-23T00:26:03;75504.88;;;-147.06;61.49
54453;BME280;40363;52.270;10.546;2023-03-23T00:28:31;75498.72;;;-147.06;61.32
54453;BME280;40363;52.270;10.546;2023-03-23T00:31:00;75484.34;;;-147.06;61.48
54453;BME280;40363;52.270;10.546;2023-03-23T00:33:28;75490.50;;;-147.06;61.58
54453;BME280;40363;52.270;10.546;2023-03-23T00:35:55;75496.66;;;-147.06;61.53
54453;BME280;40363;52.270;10.546;2023-03-23T00:38:23;75492.56;;;-147.06;61.65
54453;BME280;40363;52.270;10.546;2023-03-23T00:40:50;75494.63;;;-147.06;61.90
54453;BME280;40363;52.270;10.546;2023-03-23T00:43:18;75467.91;;;-147.06;61.75
54453;BME280;40363;52.270;10.546;2023-03-23T00:45:47;75476.13;;;-147.06;61.85
54453;BME280;40363;52.270;10.546;2023-03-23T00:48:17;75482.28;;;-147.06;61.66
54453;BME280;40363;52.270;10.546;2023-03-23T00:50:44;75478.19;;;-147.06;63.06
54453;BME280;40363;52.270;10.546;2023-03-23T00:53:11;75482.28;;;-147.06;64.99
54453;BME280;40363;52.270;10.546;2023-03-23T00:55:37;75498.72;;;-147.06;67.37
54453;BME280;40363;52.270;10.546;2023-03-23T00:58:04;75515.16;;;-147.06;68.22
54453;BME280;40363;52.270;10.546;2023-03-23T01:00:30;75517.22;;;-147.06;68.20
54453;BME280;40363;52.270;10.546;2023-03-23T01:02:58;75519.28;;;-147.06;68.05
54453;BME280;40363;52.270;10.546;2023-03-23T01:05:25;75519.28;;;-147.06;68.12
54453;BME280;40363;52.270;10.546;2023-03-23T01:07:57;75511.06;;;-147.06;68.35
54453;BME280;40363;52.270;10.546;2023-03-23T01:10:24;75513.09;;;-147.06;68.53
54453;BME280;40363;52.270;10.546;2023-03-23T01:12:52;75506.94;;;-147.06;68.71
54453;BME280;40363;52.270;10.546;2023-03-23T01:15:19;75506.94;;;-147.06;68.74
54453;BME280;40363;52.270;10.546;2023-03-23T01:17:46;75517.22;;;-147.06;68.81
54453;BME280;40363;52.270;10.546;2023-03-23T01:20:15;75517.22;;;-147.06;69.52
54453;BME280;40363;52.270;10.546;2023-03-23T01:22:42;75519.28;;;-147.06;69.45
54453;BME280;40363;52.270;10.546;2023-03-23T01:25:10;75519.28;;;-147.06;69.77
54453;BME280;40363;52.270;10.546;2023-03-23T01:27:38;75519.28;;;-147.06;70.54
54453;BME280;40363;52.270;10.546;2023-03-23T01:30:06;75531.59;;;-147.06;72.11
54453;BME280;40363;52.270;10.546;2023-03-23T01:32:32;75539.81;;;-147.06;72.50
54453;BME280;40363;52.270;10.546;2023-03-23T01:34:59;75546.00;;;-147.06;72.22
54453;BME280;40363;52.270;10.546;2023-03-23T01:37:27;75535.72;;;-147.06;72.09
54453;BME280;40363;52.270;10.546;2023-03-23T01:39:54;75531.59;;;-147.06;71.55
54453;BME280;40363;52.270;10.546;2023-03-23T01:42:22;75527.50;;;-147.06;71.95
54453;BME280;40363;52.270;10.546;2023-03-23T01:45:20;75521.31;;;-147.06;71.68
54453;BME280;40363;52.270;10.546;2023-03-23T01:47:49;75529.53;;;-147.06;71.80
54453;BME280;40363;52.270;10.546;2023-03-23T01:50:19;75535.72;;;-147.06;72.18
54453;BME280;40363;52.270;10.546;2023-03-23T01:52:49;75523.38;;;-147.06;72.46
54453;BME280;40363;52.270;10.546;2023-03-23T01:55:17;75525.44;;;-147.06;73.26
54453;BME280;40363;52.270;10.546;2023-03-23T01:57:44;75527.50;;;-147.06;74.39
54453;BME280;40363;52.270;10.546;2023-03-23T02:00:12;75531.59;;;-147.06;75.48
54453;BME280;40363;52.270;10.546;2023-03-23T02:02:41;75533.66;;;-147.06;76.29
54453;BME280;40363;52.270;10.546;2023-03-23T02:05:11;75535.72;;;-147.06;77.19
54453;BME280;40363;52.270;10.546;2023-03-23T02:07:38;75539.81;;;-147.06;76.40
54453;BME280;40363;52.270;10.546;2023-03-23T02:10:07;75546.00;;;-147.06;76.93
54453;BME280;40363;52.270;10.546;2023-03-23T02:12:34;75543.94;;;-147.06;77.21
54453;BME280;40363;52.270;10.546;2023-03-23T02:15:01;75543.94;;;-147.06;77.13
54453;BME280;40363;52.270;10.546;2023-03-23T02:17:35;75539.81;;;-147.06;77.60
54453;BME280;40363;52.270;10.546;2023-03-23T02:20:17;75548.03;;;-147.06;77.08
54453;BME280;40363;52.270;10.546;2023-03-23T02:23:13;75546.00;;;-147.06;77.09
54453;BME280;40363;52.270;10.546;2023-03-23T02:25:55;75548.03;;;-147.06;77.45
54453;BME280;40363;52.270;10.546;2023-03-23T02:28:52;75543.94;;;-147.06;77.13
54453;BME280;40363;52.270;10.546;2023-03-23T02:31:36;75539.81;;;-147.06;76.96
54453;BME280;40363;52.270;10.546;2023-03-23T02:34:15;75539.81;;;-147.06;77.24
54453;BME280;40363;52.270;10.546;2023-03-23T02:36:46;75541.88;;;-147.06;77.32
54453;BME280;40363;52.270;10.546;2023-03-23T02:39:20;75543.94;;;-147.06;76.87
54453;BME280;40363;52.270;10.546;2023-03-23T02:41:51;75539.81;;;-147.06;76.40
54453;BME280;40363;52.270;10.546;2023-03-23T02:44:21;75537.78;;;-147.06;76.32
54453;BME280;40363;52.270;10.546;2023-03-23T02:46:48;75539.81;;;-147.06;76.41
54453;BME280;40363;52.270;10.546;2023-03-23T02:49:17;75529.53;;;-147.06;76.42
54453;BME280;40363;52.270;10.546;2023-03-23T02:51:47;75539.81;;;-147.06;76.66
54453;BME280;40363;52.270;10.546;2023-03-23T02:54:16;75535.72;;;-147.06;76.55
54453;BME280;40363;52.270;10.546;2023-03-23T02:56:45;75533.66;;;-147.06;76.48
54453;BME280;40363;52.270;10.546;2023-03-23T02:59:13;75550.09;;;-147.06;76.91
54453;BME280;40363;52.270;10.546;2023-03-23T03:01:54;75543.94;;;-147.06;77.34
54453;BME280;40363;52.270;10.546;2023-03-23T03:04:24;75535.72;;;-147.06;77.40
54453;BME280;40363;52.270;10.546;2023-03-23T03:07:07;75539.81;;;-147.06;77.93
54453;BME280;40363;52.270;10.546;2023-03-23T03:09:42;75550.09;;;-147.06;78.22
54453;BME280;40363;52.270;10.546;2023-03-23T03:12:15;75539.81;;;-147.06;78.34
54453;BME280;40363;52.270;10.546;2023-03-23T03:14:49;75527.50;;;-147.06;78.76
54453;BME280;40363;52.270;10.546;2023-03-23T03:17:23;75548.03;;;-147.06;79.20
54453;BME280;40363;52.270;10.546;2023-03-23T03:19:56;75548.03;;;-147.06;79.37
54453;BME280;40363;52.270;10.546;2023-03-23T03:22:25;75556.25;;;-147.06;80.31
54453;BME280;40363;52.270;10.546;2023-03-23T03:24:55;75556.25;;;-147.06;81.07
54453;BME280;40363;52.270;10.546;2023-03-23T03:27:23;75564.47;;;-147.06;81.97
54453;BME280;40363;52.270;10.546;2023-03-23T03:29:54;75572.69;;;-147.06;82.65
54453;BME280;40363;52.270;10.546;2023-03-23T03:32:24;75568.59;;;-147.06;82.76
54453;BME280;40363;52.270;10.546;2023-03-23T03:34:54;75572.69;;;-147.06;83.44
54453;BME280;40363;52.270;10.546;2023-03-23T03:37:21;75585.03;;;-147.06;83.73
54453;BME280;40363;52.270;10.546;2023-03-23T03:39:47;75591.19;;;-147.06;84.03
54453;BME280;40363;52.270;10.546;2023-03-23T03:42:14;75582.97;;;-147.06;84.35
54453;BME280;40363;52.270;10.546;2023-03-23T03:44:40;75585.03;;;-147.06;84.90
54453;BME280;40363;52.270;10.546;2023-03-23T03:47:07;75587.09;;;-147.06;85.05
54453;BME280;40363;52.270;10.546;2023-03-23T03:49:33;75591.19;;;-147.06;85.87
54453;BME280;40363;52.270;10.546;2023-03-23T03:52:02;75597.34;;;-147.06;85.86
54453;BME280;40363;52.270;10.546;2023-03-23T03:54:28;75597.34;;;-147.06;86.46
54453;BME280;40363;52.270;10.546;2023-03-23T03:56:55;75593.25;;;-147.06;86.70
54453;BME280;40363;52.270;10.546;2023-03-23T03:59:23;75605.56;;;-147.06;87.17
54453;BME280;40363;52.270;10.546;2023-03-23T04:01:51;75609.69;;;-147.06;87.89
54453;BME280;40363;52.270;10.546;2023-03-23T04:04:19;75605.56;;;-147.06;88.12
54453;BME280;40363;52.270;10.546;2023-03-23T04:06:45;75617.91;;;-147.06;88.09
54453;BME280;40363;52.270;10.546;2023-03-23T04:09:15;75605.56;;;-147.06;87.46
54453;BME280;40363;52.270;10.546;2023-03-23T04:11:44;75613.81;;;-147.06;87.61
54453;BME280;40363;52.270;10.546;2023-03-23T04:14:11;75613.81;;;-147.06;87.54
54453;BME280;40363;52.270;10.546;2023-03-23T04:16:37;75630.25;;;-147.06;88.14
54453;BME280;40363;52.270;10.546;2023-03-23T04:19:05;75617.91;;;-147.06;88.41
54453;BME280;40363;52.270;10.546;2023-03-23T04:21:32;75617.91;;;-147.06;88.77
54453;BME280;40363;52.270;10.546;2023-03-23T04:23:59;75622.03;;;-147.06;89.63
54453;BME280;40363;52.270;10.546;2023-03-23T04:26:28;75624.06;;;-147.06;89.83
54453;BME280;40363;52.270;10.546;2023-03-23T04:28:55;75619.97;;;-147.06;90.24
54453;BME280;40363;52.270;10.546;2023-03-23T04:31:21;75615.84;;;-147.06;89.65
54453;BME280;40363;52.270;10.546;2023-03-23T04:33:50;75615.84;;;-147.06;89.98
54453;BME280;40363;52.270;10.546;2023-03-23T04:36:17;75622.03;;;-147.06;90.16
54453;BME280;40363;52.270;10.546;2023-03-23T04:38:45;75622.03;;;-147.06;90.70
54453;BME280;40363;52.270;10.546;2023-03-23T04:41:11;75622.03;;;-147.06;90.94
54453;BME280;40363;52.270;10.546;2023-03-23T04:43:39;75617.91;;;-147.06;90.00
54453;BME280;40363;52.270;10.546;2023-03-23T04:46:08;75617.91;;;-147.06;90.74
54453;BME280;40363;52.270;10.546;2023-03-23T04:48:35;75619.97;;;-147.06;90.35
54453;BME280;40363;52.270;10.546;2023-03-23T04:51:04;75624.06;;;-147.06;90.54
54453;BME280;40363;52.270;10.546;2023-03-23T04:53:31;75630.25;;;-147.06;90.32
54453;BME280;40363;52.270;10.546;2023-03-23T04:55:58;75630.25;;;-147.06;90.50
54453;BME280;40363;52.270;10.546;2023-03-23T04:58:26;75626.13;;;-147.06;90.08
54453;BME280;40363;52.270;10.546;2023-03-23T05:00:54;75613.81;;;-147.06;89.79
54453;BME280;40363;52.270;10.546;2023-03-23T05:03:21;75624.06;;;-147.06;89.42
54453;BME280;40363;52.270;10.546;2023-03-23T05:05:48;75622.03;;;-147.06;89.22
54453;BME280;40363;52.270;10.546;2023-03-23T05:08:17;75617.91;;;-147.06;88.08
54453;BME280;40363;52.270;10.546;2023-03-23T05:10:49;75597.34;;;-147.06;88.46
54453;BME280;40363;52.270;10.546;2023-03-23T05:13:16;75601.47;;;-147.06;88.98
54453;BME280;40363;52.270;10.546;2023-03-23T05:15:43;75597.34;;;-147.06;90.18
54453;BME280;40363;52.270;10.546;2023-03-23T05:18:10;75615.84;;;-147.06;90.95
54453;BME280;40363;52.270;10.546;2023-03-23T05:20:37;75613.81;;;-147.06;91.37
54453;BME280;40363;52.270;10.546;2023-03-23T05:23:04;75626.13;;;-147.06;90.81
54453;BME280;40363;52.270;10.546;2023-03-23T05:25:31;75613.81;;;-147.06;90.26
54453;BME280;40363;52.270;10.546;2023-03-23T05:28:01;75605.56;;;-147.06;90.13
54453;BME280;40363;52.270;10.546;2023-03-23T05:30:28;75609.69;;;-147.06;89.55
54453;BME280;40363;52.270;10.546;2023-03-23T05:32:55;75609.69;;;-147.06;89.54
54453;BME280;40363;52.270;10.546;2023-03-23T05:35:23;75611.75;;;-147.06;89.61
54453;BME280;40363;52.270;10.546;2023-03-23T05:37:50;75634.34;;;-147.06;89.56
54453;BME280;40363;52.270;10.546;2023-03-23T05:40:18;75619.97;;;-147.06;89.47
54453;BME280;40363;52.270;10.546;2023-03-23T05:42:45;75613.81;;;-147.06;89.29
54453;BME280;40363;52.270;10.546;2023-03-23T05:45:12;75613.81;;;-147.06;89.11
54453;BME280;40363;52.270;10.546;2023-03-23T05:47:39;75624.06;;;-147.06;89.25
54453;BME280;40363;52.270;10.546;2023-03-23T05:50:07;75613.81;;;-147.06;88.50
54453;BME280;40363;52.270;10.546;2023-03-23T05:52:37;75617.91;;;-147.06;88.54
54453;BME280;40363;52.270;10.546;2023-03-23T05:55:05;75605.56;;;-147.06;88.24
54453;BME280;40363;52.270;10.546;2023-03-23T05:57:33;75609.69;;;-147.06;88.62
54453;BME280;40363;52.270;10.546;2023-03-23T05:59:59;75611.75;;;-147.06;88.33
54453;BME280;40363;52.270;10.546;2023-03-23T06:02:31;75607.63;;;-147.06;88.26
54453;BME280;40363;52.270;10.546;2023-03-23T06:04:59;75601.47;;;-147.06;87.64
54453;BME280;40363;52.270;10.546;2023-03-23T06:07:26;75587.09;;;-147.06;86.68
54453;BME280;40363;52.270;10.546;2023-03-23T06:09:53;75580.91;;;-147.06;85.96
54453;BME280;40363;52.270;10.546;2023-03-23T06:12:20;75580.91;;;-147.06;85.68
54453;BME280;40363;52.270;10.546;2023-03-23T06:14:47;75580.91;;;-147.06;85.44
54453;BME280;40363;52.270;10.546;2023-03-23T06:17:14;75576.81;;;-147.06;85.26
54453;BME280;40363;52.270;10.546;2023-03-23T06:19:41;75591.19;;;-147.06;85.11
54453;BME280;40363;52.270;10.546;2023-03-23T06:22:08;75585.03;;;-147.06;84.80
54453;BME280;40363;52.270;10.546;2023-03-23T06:24:34;75593.25;;;-147.06;84.80
54453;BME280;40363;52.270;10.546;2023-03-23T06:27:03;75576.81;;;-147.06;84.69
54453;BME280;40363;52.270;10.546;2023-03-23T06:29:29;75572.69;;;-147.06;84.49
54453;BME280;40363;52.270;10.546;2023-03-23T06:31:58;75570.66;;;-147.06;84.50
54453;BME280;40363;52.270;10.546;2023-03-23T06:34:27;75570.66;;;-147.06;84.83
54453;BME280;40363;52.270;10.546;2023-03-23T06:36:55;75564.47;;;-147.06;84.93
54453;BME280;40363;52.270;10.546;2023-03-23T06:39:21;75564.47;;;-147.06;85.00
54453;BME280;40363;52.270;10.546;2023-03-23T06:41:49;75562.44;;;-147.06;85.58
54453;BME280;40363;52.270;10.546;2023-03-23T06:44:17;75554.22;;;-147.06;85.66
54453;BME280;40363;52.270;10.546;2023-03-23T06:46:44;75560.38;;;-147.06;85.74
54453;BME280;40363;52.270;10.546;2023-03-23T06:49:10;75558.31;;;-147.06;85.30
54453;BME280;40363;52.270;10.546;2023-03-23T06:51:37;75556.25;;;-147.06;85.74
54453;BME280;40363;52.270;10.546;2023-03-23T06:54:04;75550.09;;;-147.06;85.67
54453;BME280;40363;52.270;10.546;2023-03-23T06:56:31;75556.25;;;-147.06;85.51
54453;BME280;40363;52.270;10.546;2023-03-23T06:58:58;75556.25;;;-147.06;85.16
54453;BME280;40363;52.270;10.546;2023-03-23T07:01:26;75546.00;;;-147.06;85.08
54453;BME280;40363;52.270;10.546;2023-03-23T07:03:53;75550.09;;;-147.06;84.24
54453;BME280;40363;52.270;10.546;2023-03-23T07:06:20;75541.88;;;-147.06;84.27
54453;BME280;40363;52.270;10.546;2023-03-23T07:08:47;75533.66;;;-147.06;83.81
54453;BME280;40363;52.270;10.546;2023-03-23T07:11:14;75531.59;;;-147.06;83.76
54453;BME280;40363;52.270;10.546;2023-03-23T07:13:40;75515.16;;;-147.06;83.18
54453;BME280;40363;52.270;10.546;2023-03-23T07:16:07;75490.50;;;-147.06;82.12
54453;BME280;40363;52.270;10.546;2023-03-23T07:18:35;75453.53;;;-147.06;81.29
54453;BME280;40363;52.270;10.546;2023-03-23T07:21:02;75445.31;;;-147.06;79.96
54453;BME280;40363;52.270;10.546;2023-03-23T07:23:29;75400.09;;;-147.06;78.07
54453;BME280;40363;52.270;10.546;2023-03-23T07:25:56;75375.44;;;-147.06;77.63
54453;BME280;40363;52.270;10.546;2023-03-23T07:28:23;75432.97;;;-147.06;78.93
54453;BME280;40363;52.270;10.546;2023-03-23T07:30:50;75441.19;;;-147.06;79.49
54453;BME280;40363;52.270;10.546;2023-03-23T07:33:17;75453.53;;;-147.06;79.45
54453;BME280;40363;52.270;10.546;2023-03-23T07:35:45;75447.34;;;-147.06;78.78
54453;BME280;40363;52.270;10.546;2023-03-23T07:38:13;75449.41;;;-147.06;79.10
54453;BME280;40363;52.270;10.546;2023-03-23T07:40:40;75469.97;;;-147.06;80.22
54453;BME280;40363;52.270;10.546;2023-03-23T07:43:07;75476.13;;;-147.06;79.90
54453;BME280;40363;52.270;10.546;2023-03-23T07:45:34;75472.00;;;-147.06;79.87
54453;BME280;40363;52.270;10.546;2023-03-23T07:48:01;75472.00;;;-147.06;79.49
54453;BME280;40363;52.270;10.546;2023-03-23T07:50:27;75445.31;;;-147.06;78.86
54453;BME280;40363;52.270;10.546;2023-03-23T07:52:56;75424.75;;;-147.06;78.42
54453;BME280;40363;52.270;10.546;2023-03-23T07:55:24;75391.88;;;-147.06;77.16
54453;BME280;40363;52.270;10.546;2023-03-23T07:57:53;75305.56;;;-147.06;74.58
54453;BME280;40363;52.270;10.546;2023-03-23T08:00:22;75305.56;;;-147.06;73.43
54453;BME280;40363;52.270;10.546;2023-03-23T08:02:50;75317.91;;;-147.06;74.29
54453;BME280;40363;52.270;10.546;2023-03-23T08:05:17;75297.34;;;-147.06;72.75
54453;BME280;40363;52.270;10.546;2023-03-23T08:07:44;75243.94;;;-147.06;71.65
54453;BME280;40363;52.270;10.546;2023-03-23T08:10:13;75213.09;;;-147.06;69.92
54453;BME280;40363;52.270;10.546;2023-03-23T08:12:42;75219.28;;;-147.06;70.16
54453;BME280;40363;52.270;10.546;2023-03-23T08:15:11;75194.63;;;-147.06;68.53
54453;BME280;40363;52.270;10.546;2023-03-23T08:17:40;75237.75;;;-147.06;69.30
54453;BME280;40363;52.270;10.546;2023-03-23T08:20:08;75239.81;;;-147.06;70.22
54453;BME280;40363;52.270;10.546;2023-03-23T08:22:38;75260.38;;;-147.06;69.77
54453;BME280;40363;52.270;10.546;2023-03-23T08:25:06;75260.38;;;-147.06;70.59
54453;BME280;40363;52.270;10.546;2023-03-23T08:27:35;75264.47;;;-147.06;70.55
54453;BME280;40363;52.270;10.546;2023-03-23T08:30:02;75223.38;;;-147.06;69.79
54453;BME280;40363;52.270;10.546;2023-03-23T08:32:30;75243.94;;;-147.06;70.77
54453;BME280;40363;52.270;10.546;2023-03-23T08:34:56;75243.94;;;-147.06;70.16
54453;BME280;40363;52.270;10.546;2023-03-23T08:37:23;75223.38;;;-147.06;69.46
54453;BME280;40363;52.270;10.546;2023-03-23T08:39:51;75165.84;;;-147.06;67.68
54453;BME280;40363;52.270;10.546;2023-03-23T08:42:18;75149.41;;;-147.06;67.03
54453;BME280;40363;52.270;10.546;2023-03-23T08:44:46;75188.44;;;-147.06;67.92
54453;BME280;40363;52.270;10.546;2023-03-23T08:47:13;75209.00;;;-147.06;68.48
54453;BME280;40363;52.270;10.546;2023-03-23T08:49:39;75221.31;;;-147.06;69.13
54453;BME280;40363;52.270;10.546;2023-03-23T08:52:08;75215.16;;;-147.06;69.28
54453;BME280;40363;52.270;10.546;2023-03-23T08:54:34;75225.44;;;-147.06;68.74
54453;BME280;40363;52.270;10.546;2023-03-23T08:57:01;75272.69;;;-147.06;69.74
54453;BME280;40363;52.270;10.546;2023-03-23T08:59:29;75280.91;;;-147.06;70.02
54453;BME280;40363;52.270;10.546;2023-03-23T09:01:57;75280.91;;;-147.06;70.34
54453;BME280;40363;52.270;10.546;2023-03-23T09:04:33;75266.53;;;-147.06;69.50
54453;BME280;40363;52.270;10.546;2023-03-23T09:07:02;75268.59;;;-147.06;69.64
54453;BME280;40363;52.270;10.546;2023-03-23T09:09:29;75262.41;;;-147.06;69.82
54453;BME280;40363;52.270;10.546;2023-03-23T09:11:55;75276.81;;;-147.06;69.55
54453;BME280;40363;52.270;10.546;2023-03-23T09:14:22;75264.47;;;-147.06;69.79
54453;BME280;40363;52.270;10.546;2023-03-23T09:16:49;75239.81;;;-147.06;68.95
54453;BME280;40363;52.270;10.546;2023-03-23T09:19:17;75237.75;;;-147.06;68.68
54453;BME280;40363;52.270;10.546;2023-03-23T09:21:43;75200.78;;;-147.06;67.63
54453;BME280;40363;52.270;10.546;2023-03-23T09:24:11;75219.28;;;-147.06;67.64
54453;BME280;40363;52.270;10.546;2023-03-23T09:26:37;75223.38;;;-147.06;67.27
54453;BME280;40363;52.270;10.546;2023-03-23T09:29:04;75241.88;;;-147.06;68.01
54453;BME280;40363;52.270;10.546;2023-03-23T09:31:31;75237.75;;;-147.06;67.86
54453;BME280;40363;52.270;10.546;2023-03-23T09:33:58;75252.16;;;-147.06;67.88
54453;BME280;40363;52.270;10.546;2023-03-23T09:36:27;75241.88;;;-147.06;67.88
54453;BME280;40363;52.270;10.546;2023-03-23T09:38:57;75243.94;;;-147.06;68.21
54453;BME280;40363;52.270;10.546;2023-03-23T09:41:54;75254.19;;;-147.06;68.42
54453;BME280;40363;52.270;10.546;2023-03-23T09:44:31;75250.09;;;-147.06;68.19
54453;BME280;40363;52.270;10.546;2023-03-23T09:47:05;75260.38;;;-147.06;67.78
54453;BME280;40363;52.270;10.546;2023-03-23T09:49:37;75268.59;;;-147.06;68.07
54453;BME280;40363;52.270;10.546;2023-03-23T09:52:12;75243.94;;;-147.06;68.17
54453;BME280;40363;52.270;10.546;2023-03-23T09:54:41;75248.03;;;-147.06;67.30
54453;BME280;40363;52.270;10.546;2023-03-23T09:57:14;75241.88;;;-147.06;67.46
54453;BME280;40363;52.270;10.546;2023-03-23T09:59:47;75239.81;;;-147.06;66.95
54453;BME280;40363;52.270;10.546;2023-03-23T10:02:20;75272.69;;;-147.06;67.95
54453;BME280;40363;52.270;10.546;2023-03-23T10:04:49;75252.16;;;-147.06;67.01
54453;BME280;40363;52.270;10.546;2023-03-23T10:07:25;75254.19;;;-147.06;67.37
54453;BME280;40363;52.270;10.546;2023-03-23T10:09:54;75256.25;;;-147.06;67.54
54453;BME280;40363;52.270;10.546;2023-03-23T10:12:29;75252.16;;;-147.06;66.93
54453;BME280;40363;52.270;10.546;2023-03-23T10:15:08;75235.72;;;-147.06;66.34
54453;BME280;40363;52.270;10.546;2023-03-23T10:17:40;75248.03;;;-147.06;66.46
54453;BME280;40363;52.270;10.546;2023-03-23T10:20:32;75237.75;;;-147.06;65.90
54453;BME280;40363;52.270;10.546;2023-03-23T10:23:10;75233.66;;;-147.06;65.92
54453;BME280;40363;52.270;10.546;2023-03-23T10:25:41;75256.25;;;-147.06;65.95
54453;BME280;40363;52.270;10.546;2023-03-23T10:28:11;75245.97;;;-147.06;65.97
54453;BME280;40363;52.270;10.546;2023-03-23T10:30:41;75237.75;;;-147.06;65.16
54453;BME280;40363;52.270;10.546;2023-03-23T10:33:13;75227.50;;;-147.06;65.03
54453;BME280;40363;52.270;10.546;2023-03-23T10:35:44;75215.16;;;-147.06;64.69
54453;BME280;40363;52.270;10.546;2023-03-23T10:38:18;75215.16;;;-147.06;65.07
54453;BME280;40363;52.270;10.546;2023-03-23T10:40:50;75211.06;;;-147.06;64.06
54453;BME280;40363;52.270;10.546;2023-03-23T10:43:19;75184.34;;;-147.06;63.41
54453;BME280;40363;52.270;10.546;2023-03-23T10:45:51;75169.97;;;-147.06;62.81
54453;BME280;40363;52.270;10.546;2023-03-23T10:48:24;75159.69;;;-147.06;62.60
54453;BME280;40363;52.270;10.546;2023-03-23T10:50:55;75161.75;;;-147.06;61.86
54453;BME280;40363;52.270;10.546;2023-03-23T10:53:28;75157.63;;;-147.06;61.85
54453;BME280;40363;52.270;10.546;2023-03-23T10:55:57;75182.28;;;-147.06;61.77
54453;BME280;40363;52.270;10.546;2023-03-23T10:58:27;75194.63;;;-147.06;62.10
54453;BME280;40363;52.270;10.546;2023-03-23T11:00:55;75206.94;;;-147.06;62.51
54453;BME280;40363;52.270;10.546;2023-03-23T11:03:33;75186.41;;;-147.06;61.88
54453;BME280;40363;52.270;10.546;2023-03-23T11:06:05;75184.34;;;-147.06;61.84
54453;BME280;40363;52.270;10.546;2023-03-23T11:08:35;75178.19;;;-147.06;61.70
54453;BME280;40363;52.270;10.546;2023-03-23T11:11:10;75178.19;;;-147.06;61.61
54453;BME280;40363;52.270;10.546;2023-03-23T11:13:41;75188.44;;;-147.06;61.37
54453;BME280;40363;52.270;10.546;2023-03-23T11:16:10;75209.00;;;-147.06;61.26
54453;BME280;40363;52.270;10.546;2023-03-23T11:18:39;75200.78;;;-147.06;61.35
54453;BME280;40363;52.270;10.546;2023-03-23T11:21:07;75184.34;;;-147.06;60.90
54453;BME280;40363;52.270;10.546;2023-03-23T11:23:38;75161.75;;;-147.06;60.81
54453;BME280;40363;52.270;10.546;2023-03-23T11:26:13;75124.75;;;-147.06;59.87
54453;BME280;40363;52.270;10.546;2023-03-23T11:28:43;75079.56;;;-147.06;59.19
54453;BME280;40363;52.270;10.546;2023-03-23T11:31:12;75081.59;;;-147.06;58.52
54453;BME280;40363;52.270;10.546;2023-03-23T11:33:50;75087.78;;;-147.06;57.89
54453;BME280;40363;52.270;10.546;2023-03-23T11:36:18;75079.56;;;-147.06;57.68
54453;BME280;40363;52.270;10.546;2023-03-23T11:38:46;75079.56;;;-147.06;58.01
54453;BME280;40363;52.270;10.546;2023-03-23T11:41:18;75075.44;;;-147.06;57.60
54453;BME280;40363;52.270;10.546;2023-03-23T11:43:46;75073.38;;;-147.06;57.25
54453;BME280;40363;52.270;10.546;2023-03-23T11:46:23;75087.78;;;-147.06;57.02
54453;BME280;40363;52.270;10.546;2023-03-23T11:48:55;75073.38;;;-147.06;56.93
54453;BME280;40363;52.270;10.546;2023-03-23T11:51:30;75067.22;;;-147.06;56.95
54453;BME280;40363;52.270;10.546;2023-03-23T11:54:04;75056.94;;;-147.06;56.71
54453;BME280;40363;52.270;10.546;2023-03-23T11:56:34;75073.38;;;-147.06;55.83
54453;BME280;40363;52.270;10.546;2023-03-23T11:59:02;75042.56;;;-147.06;55.85
54453;BME280;40363;52.270;10.546;2023-03-23T12:01:46;75003.53;;;-147.06;55.41
54453;BME280;40363;52.270;10.546;2023-03-23T12:04:27;75005.59;;;-147.06;54.48
54453;BME280;40363;52.270;10.546;2023-03-23T12:07:09;74983.00;;;-147.06;54.01
54453;BME280;40363;52.270;10.546;2023-03-23T12:09:46;74966.56;;;-147.06;53.61
54453;BME280;40363;52.270;10.546;2023-03-23T12:12:21;74976.81;;;-147.06;52.64
54453;BME280;40363;52.270;10.546;2023-03-23T12:14:56;74980.94;;;-147.06;52.30
54453;BME280;40363;52.270;10.546;2023-03-23T12:17:34;74995.31;;;-147.06;52.15
54453;BME280;40363;52.270;10.546;2023-03-23T12:20:14;74976.81;;;-147.06;52.35
54453;BME280;40363;52.270;10.546;2023-03-23T12:23:03;74978.88;;;-147.06;52.69
54453;BME280;40363;52.270;10.546;2023-03-23T12:25:53;74989.16;;;-147.06;52.83
54453;BME280;40363;52.270;10.546;2023-03-23T12:28:32;75009.69;;;-147.06;52.47
54453;BME280;40363;52.270;10.546;2023-03-23T12:31:07;74999.41;;;-147.06;52.16
54453;BME280;40363;52.270;10.546;2023-03-23T12:33:45;74968.59;;;-147.06;51.56
54453;BME280;40363;52.270;10.546;2023-03-23T12:36:23;74972.72;;;-147.06;50.83
54453;BME280;40363;52.270;10.546;2023-03-23T12:39:09;74948.06;;;-147.06;50.63
54453;BME280;40363;52.270;10.546;2023-03-23T12:41:44;74964.50;;;-147.06;50.61
54453;BME280;40363;52.270;10.546;2023-03-23T12:44:14;74954.22;;;-147.06;50.74